createdAt,value
2022-08-27T00:04:20.587Z,74.98
2022-08-27T00:09:27.025Z,75.47
2022-08-27T00:14:30.276Z,74.78
2022-08-27T00:19:33.395Z,74.81
2022-08-27T00:24:38.428Z,74.01
2022-08-27T00:29:51.376Z,73.40
2022-08-27T00:34:54.156Z,72.78
2022-08-27T00:39:57.018Z,71.82
2022-08-27T00:44:59.998Z,71.44
2022-08-27T00:50:09.399Z,71.01
2022-08-27T00:55:22.720Z,71.32
2022-08-27T01:00:25.648Z,71.39
2022-08-27T01:05:29.573Z,71.74
2022-08-27T01:10:32.767Z,72.23
2022-08-27T01:15:36.360Z,71.99
2022-08-27T01:21:08.644Z,72.52
2022-08-27T01:26:15.450Z,72.74
2022-08-27T01:31:18.277Z,73.46
2022-08-27T01:36:21.673Z,73.53
2022-08-27T01:41:25.336Z,74.18
2022-08-27T01:46:29.035Z,74.30
2022-08-27T01:51:32.046Z,75.02
2022-08-27T01:56:34.909Z,75.56
2022-08-27T02:01:37.734Z,76.24
2022-08-27T02:06:40.748Z,76.57
2022-08-27T02:11:45.117Z,76.89
2022-08-27T02:16:52.118Z,77.63
2022-08-27T02:22:00.263Z,77.75
2022-08-27T02:27:03.173Z,78.13
2022-08-27T02:32:06.335Z,78.38
2022-08-27T02:37:09.325Z,78.93
2022-08-27T02:42:12.424Z,79.25
2022-08-27T02:47:16.886Z,79.22
2022-08-27T02:52:24.813Z,79.23
2022-08-27T02:57:28.273Z,78.94
2022-08-27T03:02:31.231Z,78.84
2022-08-27T03:07:35.206Z,79.02
2022-08-27T03:12:38.157Z,78.84
2022-08-27T03:18:00.208Z,78.79
2022-08-27T03:23:03.129Z,79.30
2022-08-27T03:28:06.601Z,79.93
2022-08-27T03:33:26.653Z,79.70
2022-08-27T03:38:29.445Z,80.27
2022-08-27T03:43:32.827Z,80.77
2022-08-27T03:48:36.221Z,80.53
2022-08-27T03:53:41.569Z,80.45
2022-08-27T03:58:44.331Z,80.74
2022-08-27T04:03:47.873Z,81.00
2022-08-27T04:08:50.691Z,81.25
2022-08-27T04:13:53.455Z,81.46
2022-08-27T04:18:56.263Z,81.35
2022-08-27T04:24:00.281Z,81.34
2022-08-27T04:29:03.171Z,81.44
2022-08-27T04:34:07.766Z,81.74
2022-08-27T04:39:10.569Z,80.40
2022-08-27T04:44:13.477Z,79.17
2022-08-27T04:49:17.394Z,78.30
2022-08-27T04:54:22.530Z,77.37
2022-08-27T04:59:37.299Z,76.42
2022-08-27T05:04:41.429Z,76.33
2022-08-27T05:09:45.567Z,76.41
2022-08-27T05:14:48.464Z,76.85
2022-08-27T05:19:51.289Z,77.30
2022-08-27T05:24:54.106Z,77.66
2022-08-27T05:29:57.519Z,77.87
2022-08-27T05:35:00.352Z,78.16
2022-08-27T05:40:05.873Z,76.61
2022-08-27T05:45:10.013Z,76.39
2022-08-27T05:50:21.872Z,76.20
2022-08-27T05:55:26.456Z,76.66
2022-08-27T06:00:47.625Z,76.25
2022-08-27T06:05:50.499Z,76.24
2022-08-27T06:10:53.357Z,75.86
2022-08-27T06:16:15.806Z,76.11
2022-08-27T06:21:24.268Z,76.22
2022-08-27T06:26:28.464Z,73.95
2022-08-27T06:31:32.202Z,73.10
2022-08-27T06:36:39.311Z,72.70
2022-08-27T06:41:44.008Z,72.65
2022-08-27T06:46:47.174Z,72.19
2022-08-27T06:51:50.012Z,71.65
2022-08-27T06:56:52.855Z,71.02
2022-08-27T07:01:56.273Z,70.38
2022-08-27T07:07:01.231Z,69.53
2022-08-27T07:12:05.355Z,69.98
2022-08-27T07:17:11.370Z,69.50
2022-08-27T07:22:19.558Z,68.51
2022-08-27T07:27:23.510Z,68.08
2022-08-27T07:32:30.650Z,68.92
2022-08-27T07:37:39.462Z,69.07
2022-08-27T07:43:02.370Z,68.31
2022-08-27T07:48:05.919Z,67.98
2022-08-27T07:53:09.808Z,67.55
2022-08-27T07:58:18.726Z,64.03
2022-08-27T08:03:21.732Z,63.50
2022-08-27T08:08:25.294Z,56.21
2022-08-27T08:13:32.265Z,52.92
2022-08-27T08:18:37.811Z,50.60
2022-08-27T08:23:42.335Z,49.13
2022-08-27T08:28:45.617Z,48.38
2022-08-27T08:33:49.912Z,48.33
2022-08-27T08:38:54.388Z,48.00
2022-08-27T08:44:02.222Z,46.63
2022-08-27T08:50:03.280Z,45.28
2022-08-27T08:55:31.120Z,45.31
2022-08-27T09:00:34.212Z,44.37
2022-08-27T09:05:41.074Z,44.87
2022-08-27T09:11:14.746Z,42.87
2022-08-27T09:16:19.014Z,42.99
2022-08-27T09:21:45.881Z,41.91
2022-08-27T09:26:49.184Z,40.38
2022-08-27T09:32:07.255Z,39.36
2022-08-27T09:37:20.589Z,38.66
2022-08-27T09:42:49.566Z,39.03
2022-08-27T09:48:10.679Z,39.80
2022-08-27T09:53:40.918Z,39.64
2022-08-27T09:58:43.596Z,39.84
2022-08-27T10:03:47.041Z,40.30
2022-08-27T10:08:57.663Z,39.40
2022-08-27T10:14:30.524Z,38.76
2022-08-27T10:20:20.357Z,39.15
2022-08-27T10:25:59.045Z,38.26
2022-08-27T10:31:24.343Z,37.09
2022-08-27T10:36:54.244Z,36.66
2022-08-27T10:42:27.184Z,35.57
2022-08-27T10:47:52.383Z,35.03
2022-08-27T10:53:05.486Z,34.56
2022-08-27T10:58:39.631Z,34.81
2022-08-27T11:03:54.817Z,34.79
2022-08-27T11:09:22.997Z,32.91
2022-08-27T11:14:58.348Z,33.60
2022-08-27T11:20:29.824Z,33.28
2022-08-27T11:25:50.992Z,31.78
2022-08-27T11:31:08.692Z,31.26
2022-08-27T11:36:20.446Z,31.50
2022-08-27T11:41:54.751Z,32.13
2022-08-27T11:47:24.487Z,31.83
2022-08-27T11:52:38.192Z,31.88
2022-08-27T11:57:41.744Z,30.91
2022-08-27T12:02:56.346Z,29.56
2022-08-27T12:07:59.800Z,30.34
2022-08-27T12:13:27.912Z,29.93
2022-08-27T12:18:49.616Z,30.91
2022-08-27T12:24:22.005Z,29.42
2022-08-27T12:29:41.032Z,30.45
2022-08-27T12:35:05.479Z,29.81
2022-08-27T12:40:19.897Z,27.89
2022-08-27T12:45:26.096Z,28.75
2022-08-27T12:50:31.067Z,29.43
2022-08-27T12:55:59.562Z,28.42
2022-08-27T13:01:28.522Z,28.41
2022-08-27T13:06:36.300Z,29.02
2022-08-27T13:11:49.498Z,29.59
2022-08-27T13:17:00.511Z,29.61
2022-08-27T13:22:07.220Z,29.69
2022-08-27T13:27:10.039Z,29.79
2022-08-27T13:32:15.031Z,28.35
2022-08-27T13:37:44.929Z,30.74
2022-08-27T13:42:48.386Z,29.58
2022-08-27T13:47:54.051Z,29.94
2022-08-27T13:53:30.165Z,28.99
2022-08-27T13:58:35.095Z,29.92
2022-08-27T14:03:49.556Z,30.45
2022-08-27T14:08:52.994Z,29.20
2022-08-27T14:13:57.699Z,30.08
2022-08-27T14:19:28.618Z,29.02
2022-08-27T14:24:36.161Z,28.61
2022-08-27T14:29:38.994Z,28.88
2022-08-27T14:34:41.901Z,29.18
2022-08-27T14:39:45.064Z,28.98
2022-08-27T14:44:49.452Z,29.97
2022-08-27T14:49:52.529Z,29.40
2022-08-27T14:54:55.405Z,31.71
2022-08-27T14:59:58.230Z,30.92
2022-08-27T15:05:01.261Z,30.88
2022-08-27T15:10:14.746Z,29.44
2022-08-27T15:15:19.206Z,29.29
2022-08-27T15:20:22.186Z,29.45
2022-08-27T15:25:25.855Z,30.33
2022-08-27T15:30:29.996Z,30.37
2022-08-27T15:35:33.326Z,30.62
2022-08-27T15:40:36.995Z,29.57
2022-08-27T15:45:39.841Z,31.03
2022-08-27T15:50:43.160Z,32.40
2022-08-27T15:55:46.040Z,32.48
2022-08-27T16:00:49.349Z,31.90
2022-08-27T16:06:02.349Z,31.30
2022-08-27T16:11:08.240Z,33.44
2022-08-27T16:16:12.861Z,34.58
2022-08-27T16:21:16.080Z,34.91
2022-08-27T16:26:18.938Z,35.62
2022-08-27T16:31:22.178Z,36.46
2022-08-27T16:36:25.381Z,36.34
2022-08-27T16:41:28.476Z,36.82
2022-08-27T16:46:31.460Z,37.13
2022-08-27T16:51:35.752Z,37.91
2022-08-27T16:56:40.434Z,38.52
2022-08-27T17:01:45.984Z,39.09
2022-08-27T17:06:51.710Z,39.85
2022-08-27T17:11:57.581Z,40.12
2022-08-27T17:17:00.401Z,40.35
2022-08-27T17:22:04.433Z,40.84
2022-08-27T17:27:07.791Z,41.40
2022-08-27T17:32:14.038Z,41.86
2022-08-27T17:37:16.875Z,42.95
2022-08-27T17:42:22.916Z,44.01
2022-08-27T17:47:26.135Z,45.31
2022-08-27T17:52:29.340Z,46.38
2022-08-27T17:57:40.369Z,47.40
2022-08-27T18:02:50.406Z,48.10
2022-08-27T18:07:53.784Z,48.83
2022-08-27T18:12:57.025Z,48.87
2022-08-27T18:18:00.421Z,49.16
2022-08-27T18:23:04.515Z,50.36
2022-08-27T18:28:11.473Z,50.49
2022-08-27T18:33:15.027Z,50.89
2022-08-27T18:38:18.518Z,51.68
2022-08-27T18:43:33.102Z,52.27
2022-08-27T18:48:36.279Z,53.15
2022-08-27T18:53:42.604Z,53.57
2022-08-27T18:58:47.254Z,54.46
2022-08-27T19:03:54.156Z,55.11
2022-08-27T19:08:57.079Z,55.55
2022-08-27T19:13:59.799Z,56.14
2022-08-27T19:19:04.638Z,56.51
2022-08-27T19:24:08.022Z,57.13
2022-08-27T19:29:12.111Z,57.15
2022-08-27T19:34:15.222Z,57.67
2022-08-27T19:39:18.151Z,57.96
2022-08-27T19:44:21.071Z,58.81
2022-08-27T19:49:24.372Z,59.04
2022-08-27T19:54:33.680Z,59.63
2022-08-27T19:59:36.926Z,59.64
2022-08-27T20:04:56.079Z,59.83
2022-08-27T20:10:08.418Z,60.10
2022-08-27T20:15:12.746Z,60.36
2022-08-27T20:20:23.110Z,60.41
2022-08-27T20:25:26.605Z,60.94
2022-08-27T20:30:30.602Z,61.08
2022-08-27T20:35:33.460Z,62.00
2022-08-27T20:40:36.337Z,62.44
2022-08-27T20:45:40.629Z,63.09
2022-08-27T20:50:43.707Z,63.66
2022-08-27T20:55:46.595Z,63.77
2022-08-27T21:00:54.206Z,64.00
2022-08-27T21:05:57.235Z,64.61
2022-08-27T21:11:00.237Z,64.88
2022-08-27T21:16:03.504Z,65.20
2022-08-27T21:21:08.340Z,65.20
2022-08-27T21:26:13.745Z,64.67
2022-08-27T21:31:17.235Z,64.53
2022-08-27T21:36:20.133Z,65.05
2022-08-27T21:41:24.362Z,65.38
2022-08-27T21:46:27.194Z,65.31
2022-08-27T21:51:31.946Z,65.62
2022-08-27T21:56:34.935Z,65.91
2022-08-27T22:01:38.232Z,66.67
2022-08-27T22:06:41.429Z,67.02
2022-08-27T22:11:45.959Z,67.24
2022-08-27T22:16:48.779Z,67.32
2022-08-27T22:21:51.580Z,67.71
2022-08-27T22:26:54.604Z,67.89
2022-08-27T22:31:57.853Z,68.38
2022-08-27T22:37:01.182Z,68.96
2022-08-27T22:42:04.294Z,69.18
2022-08-27T22:47:07.213Z,69.09
2022-08-27T22:52:10.148Z,69.67
2022-08-27T22:57:12.969Z,69.73
2022-08-27T23:02:16.183Z,70.48
2022-08-27T23:07:19.156Z,70.90
2022-08-27T23:12:23.001Z,71.12
2022-08-27T23:17:25.929Z,71.17
2022-08-27T23:22:31.438Z,70.98
2022-08-27T23:27:34.640Z,70.91
2022-08-27T23:32:39.133Z,70.65
2022-08-27T23:37:51.349Z,70.82
2022-08-27T23:42:54.924Z,70.75
2022-08-27T23:47:57.851Z,70.62
2022-08-27T23:53:01.784Z,70.27
2022-08-27T23:58:04.901Z,69.63
